CheckWX is a tool to help pilots better visualize weather data.  It is not intended as a substitute for an official pre-flight weather briefing.

21:37:08 UTC

KFMH METAR
Cape Cod Coast Guard Air Station Airport
Falmouth, Massachusetts, USA
Current

42 mins ago

KFMH 222055Z 222055KT 1 1/2SM OVC014 13/12 A3002 BR
Observed
Oct-22 @ 20:55 UTC
Wind
  • 222° at 55 KTS
Visibility
1 1/2 SM
Flight Rules
IFR
Conditions
Mist
Cloud Levels
  • Overcast at 1,400' AGL
Temperature
13°C / 55°F
Dewpoint
12°C / 54°F
Humidity
94%
Altimeter
30.02" Hg
Pressure
1016.62 hPa
Previous

42 mins ago

KFMH 222055Z COR 222055KT 1 1/2SM OVC014 13/12 A3002 BR
Observed
Oct-22 @ 20:55 UTC
Wind
  • 222° at 55 KTS
Visibility
1 1/2 SM
Flight Rules
IFR
Conditions
Mist
Cloud Levels
  • Overcast at 1,400' AGL
Temperature
13°C / 55°F
Dewpoint
12°C / 54°F
Humidity
94%
Altimeter
30.02" Hg
Pressure
1016.62 hPa
Previous

2 hours ago

KFMH 221955Z 07012KT 3SM OVC015 14/11 A3003 HZ
Observed
Oct-22 @ 19:55 UTC
Wind
  • 070° at 12 KTS
Visibility
3 SM
Flight Rules
MVFR
Conditions
Haze
Cloud Levels
  • Overcast at 1,500' AGL
Temperature
14°C / 57°F
Dewpoint
11°C / 52°F
Humidity
82%
Altimeter
30.03" Hg
Pressure
1016.92 hPa